Phoenix, AZ

10:31 AM MST on January 26, 2015 (GMT -0700)
APRSWXNET Phoenix AZ US | Change Station
CLOSE
Current Station
Personal Weather Station
Location: Phoenix, AZ
Elevation: 1115 ft
Nearby Weather Stations

Elev 1115 ft 33.49 °N, 112.07 °W | Updated 33 minutes ago

Mostly Cloudy
Mostly Cloudy
58 °F
Feels Like 58 °F
N
0
Wind Variable Wind from South
Gusts 0.0 mph

Today
High -- | Low -- °F
--% Chance of Precip.
Yesterday
High -- | Low -- °F
Precip. -- in
7:28 AM 5:53 PM
Waxing Crescent, 45% visible
Pressure 30.11 in
Visibility 10.0 miles
Clouds Few 12000 ft
Mostly Cloudy 22000 ft
Mostly Cloudy 25000 ft
Dew Point 39 °F
Humidity 49%
Rainfall 0.00 in
Snow Depth Not available.
UV 1 out of 12
Pollen 4.30 out of 12
Air Quality Not available.
Flu Activity Not available.
METAR KPHX 261651Z 13005KT 10SM FEW120 BKN220 BKN250 16/M01 A3013 RMK AO2 SLP196 T01611006

More Conditions Fewer Conditions

Pressure 30.11 in
Visibility 10.0 miles
Clouds Few 12000 ft
Mostly Cloudy 22000 ft
Mostly Cloudy 25000 ft
Dew Point 39 °F
Humidity 49%
Rainfall 0.00 in
Snow Depth Not available.
UV 1 out of 12
Pollen 4.30 out of 12
Air Quality Not available.
Flu Activity Not available.
METAR KPHX 261651Z 13005KT 10SM FEW120 BKN220 BKN250 16/M01 A3013 RMK AO2 SLP196 T01611006

More Conditions Fewer Conditions

10-Day Weather Forecast

Almanac

Astronomy

Jan. 26, 2015 Rise Set
Actual Time
Civil Twilight
Nautical Twilight
Astronomical Twilight
Moon
Length of Visible Light
Length of Day
Tomorrow will be .
, % of the Moon is Illuminated

Today's Extremes

State Highs State Lows

Community

WunderPhotos

Upload Photos

1,790,299 photos uploaded!

WunderBlogs® & News

Nearby

Air Quality

  Air Quality AQ Index Pollutant
Not available.

Snow Depth

Station Depth Elevation

Earthquake Activity

City Distance Mag. Time & Date
Minimum magnitude displayed is 2.5.

Coastal Water Temperatures

Place Temperature

Nearby Weather Stations